Time;durP1;ratioP1;P1;durP2;ratioP2;P2;SDS_P1;SDS_P2;PMS_P1;PMS_P2;Temp;Humidity;BMP_temperature;BMP_pressure;BME280_temperature;BME280_humidity;BME280_pressure;Samples;Min_cycle;Max_cycle;Signal;HPM_P1;HPM_P2
2023/09/05 00:01:12;;;;;;;;;;;;;;;;;;5103928;27;20118;-88
2023/09/05 00:03:38;;;;;;;5.30;4.80;;;15.40;99.90;;;;;;5114453;27;20394;-88
2023/09/05 00:06:05;;;;;;;5.25;4.75;;;15.30;99.90;;;;;;5122196;27;20047;-88
2023/09/05 00:08:31;;;;;;;4.78;4.28;;;15.20;99.90;;;;;;5096476;27;20089;-88
2023/09/05 00:11:01;;;;;;;5.13;4.63;;;15.10;99.90;;;;;;5136015;27;20063;-88
2023/09/05 00:13:28;;;;;;;5.40;4.68;;;;;;;;;;5125805;27;20542;-89
2023/09/05 00:15:53;;;;;;;6.72;5.50;;;14.80;99.90;;;;;;5115923;27;20127;-88
2023/09/05 00:18:19;;;;;;;7.35;6.63;;;14.80;99.90;;;;;;5099913;27;20497;-88
2023/09/05 00:20:46;;;;;;;8.55;6.32;;;14.70;99.90;;;;;;5086452;27;20047;-88
2023/09/05 00:23:12;;;;;;;8.82;7.93;;;14.90;99.90;;;;;;5090066;27;20073;-88
2023/09/05 00:25:37;;;;;;;7.28;6.57;;;14.80;99.90;;;;;;5080791;27;20490;-88
2023/09/05 00:28:03;;;;;;;7.45;6.75;;;14.70;99.90;;;;;;5106990;27;20039;-89
2023/09/05 00:30:31;;;;;;;8.07;6.85;;;14.90;99.90;;;;;;5082984;27;20626;-88
2023/09/05 00:32:56;;;;;;;;;;;14.70;99.90;;;;;;5101165;27;20039;-88
2023/09/05 00:35:22;;;;;;;7.28;6.57;;;14.70;99.90;;;;;;5100811;27;20418;-90
2023/09/05 00:37:48;;;;;;;7.38;6.38;;;14.70;99.90;;;;;;5084330;27;20039;-92
2023/09/05 00:40:15;;;;;;;8.13;6.60;;;14.80;99.90;;;;;;5111411;27;20043;-90
2023/09/05 00:42:41;;;;;;;9.38;6.30;;;14.80;99.90;;;;;;5100940;27;20494;-89
2023/09/05 00:45:07;;;;;;;7.18;6.47;;;14.80;99.90;;;;;;5098131;27;20469;-89
2023/09/05 00:47:33;;;;;;;7.28;6.53;;;14.90;99.90;;;;;;5102340;27;20046;-87
2023/09/05 00:50:04;;;;;;;7.78;6.60;;;15.10;99.90;;;;;;5099306;27;20457;-89
2023/09/05 00:52:29;;;;;;;8.10;7.30;;;14.90;99.90;;;;;;5102474;27;20173;-89
2023/09/05 00:54:55;;;;;;;6.72;5.55;;;14.50;99.90;;;;;;5094049;27;20043;-87
2023/09/05 00:57:24;;;;;;;9.15;6.38;;;14.70;99.90;;;;;;5085855;27;20167;-89
2023/09/05 00:59:50;;;;;;;6.95;6.32;;;14.60;99.90;;;;;;5113413;27;20039;-91
2023/09/05 01:02:15;;;;;;;8.98;6.95;;;14.80;99.90;;;;;;5103045;27;20039;-89
2023/09/05 01:04:42;;;;;;;7.38;6.63;;;15.00;99.90;;;;;;5103540;27;20049;-86
2023/09/05 01:07:20;;;;;;;7.88;6.57;;;14.80;99.90;;;;;;5113737;27;20031;-88
2023/09/05 01:10:11;;;;;;;6.93;6.22;;;14.70;99.90;;;;;;5116194;27;20039;-86
2023/09/05 01:12:37;;;;;;;6.90;6.20;;;14.80;99.90;;;;;;5134447;27;20332;-89
2023/09/05 01:15:04;;;;;;;6.57;5.97;;;14.80;99.90;;;;;;5097642;27;20039;-89
2023/09/05 01:17:30;;;;;;;7.00;6.35;;;14.90;99.90;;;;;;5069334;27;20055;-88
2023/09/05 01:19:57;;;;;;;6.50;5.90;;;14.90;99.90;;;;;;5061218;27;20375;-84
2023/09/05 01:22:35;;;;;;;;;;;14.90;99.90;;;;;;5087878;27;20039;-85
2023/09/05 01:25:02;;;;;;;6.80;6.13;;;14.90;99.90;;;;;;5089686;28;20462;-87
2023/09/05 01:27:29;;;;;;;11.98;6.18;;;15.00;99.90;;;;;;5094834;27;20047;-86
2023/09/05 01:29:56;;;;;;;6.68;6.07;;;15.00;99.90;;;;;;5088573;28;20141;-86
2023/09/05 01:32:23;;;;;;;6.10;5.45;;;14.90;99.90;;;;;;5105084;27;20544;-87
2023/09/05 01:34:49;;;;;;;8.35;5.60;;;15.00;99.90;;;;;;5063245;27;20032;-85
2023/09/05 01:37:15;;;;;;;7.32;5.85;;;15.00;99.90;;;;;;5088473;27;20042;-87
2023/09/05 01:39:42;;;;;;;6.47;5.88;;;15.00;99.90;;;;;;5091136;27;20081;-87
2023/09/05 01:42:07;;;;;;;6.60;5.90;;;15.00;99.90;;;;;;5095129;27;20042;-88
2023/09/05 01:44:36;;;;;;;8.00;5.97;;;14.90;99.90;;;;;;5098688;27;21044;-88
2023/09/05 01:47:02;;;;;;;5.45;4.85;;;14.90;99.90;;;;;;5087466;27;20062;-88
2023/09/05 01:49:28;;;;;;;4.67;4.27;;;14.90;99.90;;;;;;5096236;28;20047;-90
2023/09/05 01:51:53;;;;;;;4.85;4.40;;;14.90;99.90;;;;;;5071538;27;20514;-89
2023/09/05 01:54:19;;;;;;;4.75;4.20;;;14.70;99.90;;;;;;5061679;28;20402;-88
2023/09/05 01:56:45;;;;;;;5.25;4.72;;;14.60;99.90;;;;;;5069628;27;20038;-89
2023/09/05 01:59:11;;;;;;;5.25;4.75;;;14.60;99.90;;;;;;5082633;28;20589;-89
2023/09/05 02:01:37;;;;;;;6.65;4.40;;;14.70;99.90;;;;;;5071576;27;20043;-89
2023/09/05 02:04:03;;;;;;;6.03;5.13;;;14.50;99.90;;;;;;5071082;28;20717;-88
2023/09/05 02:06:29;;;;;;;5.78;5.00;;;14.40;99.90;;;;;;5095237;27;20046;-90
2023/09/05 02:08:54;;;;;;;5.22;4.72;;;14.50;99.90;;;;;;5092973;28;20035;-89
2023/09/05 02:11:20;;;;;;;6.45;5.30;;;14.40;99.90;;;;;;5076831;27;20031;-87
2023/09/05 02:13:46;;;;;;;6.40;5.32;;;14.50;99.90;;;;;;5075447;28;20116;-86
2023/09/05 02:16:18;;;;;;;6.47;5.72;;;14.50;99.90;;;;;;5061971;28;20052;-87
2023/09/05 02:18:46;;;;;;;6.60;5.72;;;14.40;99.90;;;;;;5056343;28;20064;-87
2023/09/05 02:21:12;;;;;;;6.38;5.78;;;14.50;99.90;;;;;;5071314;28;20036;-86
2023/09/05 02:23:37;;;;;;;7.22;5.80;;;14.50;99.90;;;;;;5069637;28;20036;-88
2023/09/05 02:26:03;;;;;;;6.15;5.45;;;14.60;99.90;;;;;;5073487;28;20447;-86
2023/09/05 02:28:29;;;;;;;7.47;6.10;;;14.20;99.90;;;;;;5080817;28;20043;-87
2023/09/05 02:30:55;;;;;;;6.95;5.68;;;14.60;99.90;;;;;;5040508;28;20574;-86
2023/09/05 02:33:22;;;;;;;6.30;5.70;;;14.70;99.90;;;;;;5083674;28;20089;-86
2023/09/05 02:35:48;;;;;;;6.93;6.18;;;14.60;99.90;;;;;;5073491;28;20104;-85
2023/09/05 02:38:14;;;;;;;6.63;5.05;;;14.60;99.90;;;;;;5069566;28;20061;-84
2023/09/05 02:40:44;;;;;;;7.20;5.88;;;14.60;99.90;;;;;;5077413;28;20051;-84
2023/09/05 02:43:10;;;;;;;6.32;5.35;;;14.70;99.90;;;;;;5074509;28;20042;-83
2023/09/05 02:45:36;;;;;;;6.65;5.20;;;14.60;99.90;;;;;;5069840;28;20036;-84
2023/09/05 02:48:02;;;;;;;5.90;5.30;;;14.50;99.90;;;;;;5039538;28;20043;-85
2023/09/05 02:50:27;;;;;;;6.43;5.80;;;14.70;99.90;;;;;;5091688;28;20053;-85
2023/09/05 02:52:53;;;;;;;6.93;6.22;;;14.30;99.90;;;;;;5061445;28;20038;-85
2023/09/05 02:55:19;;;;;;;7.18;6.57;;;14.40;99.90;;;;;;5077362;28;20028;-85
2023/09/05 02:57:45;;;;;;;9.15;6.28;;;14.30;99.90;;;;;;5068477;28;20475;-85
2023/09/05 03:00:11;;;;;;;7.07;6.38;;;14.30;99.90;;;;;;5044327;28;20040;-85
2023/09/05 03:02:40;;;;;;;7.30;6.60;;;14.30;99.90;;;;;;5066431;28;20127;-86
2023/09/05 03:05:06;;;;;;;6.78;6.07;;;14.30;99.90;;;;;;5056225;28;20044;-87
2023/09/05 03:07:32;;;;;;;7.20;6.50;;;14.30;99.90;;;;;;5029176;28;20044;-84
2023/09/05 03:09:58;;;;;;;6.97;6.28;;;14.30;99.90;;;;;;5050400;28;20032;-85
2023/09/05 03:12:24;;;;;;;6.40;5.80;;;14.20;99.90;;;;;;5064232;28;20036;-85
2023/09/05 03:14:50;;;;;;;6.63;5.95;;;14.20;99.90;;;;;;5076553;28;20040;-84
2023/09/05 03:17:15;;;;;;;6.18;5.60;;;14.30;99.90;;;;;;5074524;28;20055;-85
2023/09/05 03:19:41;;;;;;;6.90;5.28;;;14.10;99.90;;;;;;5083351;28;20099;-84
2023/09/05 03:22:07;;;;;;;6.70;5.82;;;14.10;99.90;;;;;;5074099;28;20040;-87
2023/09/05 03:24:34;;;;;;;7.10;5.72;;;14.10;99.90;;;;;;5109479;28;20045;-86
2023/09/05 03:27:00;;;;;;;7.15;6.25;;;14.20;99.90;;;;;;5108990;28;20408;-86
2023/09/05 03:29:26;;;;;;;6.43;5.82;;;14.00;99.90;;;;;;5087558;27;20043;-86
2023/09/05 03:31:55;;;;;;;7.20;6.28;;;14.20;99.90;;;;;;5111093;28;20397;-84
2023/09/05 03:34:21;;;;;;;6.63;6.03;;;14.10;99.90;;;;;;5096189;27;20050;-87
2023/09/05 03:36:48;;;;;;;7.07;6.38;;;14.30;99.90;;;;;;5112305;27;20047;-87
2023/09/05 03:39:14;;;;;;;7.47;6.68;;;14.10;99.90;;;;;;5107906;27;20054;-86
2023/09/05 03:41:40;;;;;;;8.32;6.25;;;14.00;99.90;;;;;;5088779;27;20047;-86
2023/09/05 03:44:06;;;;;;;7.25;6.55;;;14.00;99.90;;;;;;5099221;27;20043;-87
2023/09/05 03:46:32;;;;;;;7.32;6.53;;;14.00;99.90;;;;;;5093767;28;20051;-87
2023/09/05 03:48:57;;;;;;;7.47;6.75;;;14.10;99.90;;;;;;5104550;27;20088;-86
2023/09/05 03:51:23;;;;;;;7.40;6.63;;;14.00;99.90;;;;;;5078372;28;20044;-87
2023/09/05 03:53:52;;;;;;;9.13;6.32;;;13.90;99.90;;;;;;5097881;27;20245;-89
2023/09/05 03:56:17;;;;;;;6.90;6.22;;;13.80;99.90;;;;;;5094437;27;20483;-85
2023/09/05 03:58:43;;;;;;;7.40;6.43;;;14.00;99.90;;;;;;5096438;27;20122;-86
2023/09/05 04:01:13;;;;;;;7.30;6.50;;;13.80;99.90;;;;;;5091169;27;20199;-85
2023/09/05 04:03:39;;;;;;;9.18;6.72;;;13.90;99.90;;;;;;5074730;27;20058;-84
2023/09/05 04:06:05;;;;;;;7.15;6.45;;;13.80;99.90;;;;;;5086042;28;20036;-86
2023/09/05 04:08:31;;;;;;;7.25;6.55;;;13.80;99.90;;;;;;5076204;27;20043;-85
2023/09/05 04:11:01;;;;;;;7.25;6.55;;;13.80;99.90;;;;;;5082757;27;20103;-85
2023/09/05 04:13:27;;;;;;;8.70;7.00;;;13.80;99.90;;;;;;5109671;27;20042;-85
2023/09/05 04:15:53;;;;;;;7.55;6.75;;;14.00;99.90;;;;;;5096021;28;20060;-85
2023/09/05 04:18:19;;;;;;;8.45;6.70;;;13.80;99.90;;;;;;5076894;27;20051;-86
2023/09/05 04:20:45;;;;;;;7.57;6.85;;;13.80;99.90;;;;;;5095446;27;20104;-86
2023/09/05 04:23:11;;;;;;;8.73;7.38;;;14.00;99.90;;;;;;5115914;27;20043;-87
2023/09/05 04:25:40;;;;;;;8.90;7.15;;;13.90;99.90;;;;;;5115646;27;20050;-88
2023/09/05 04:28:06;;;;;;;8.82;7.93;;;14.10;99.90;;;;;;5114996;27;20393;-87
2023/09/05 04:30:34;;;;;;;8.10;7.28;;;14.10;99.90;;;;;;5116358;27;20050;-87
2023/09/05 04:33:03;;;;;;;8.90;8.00;;;14.00;99.90;;;;;;5096230;27;20036;-86
2023/09/05 04:35:29;;;;;;;8.57;7.68;;;13.90;99.90;;;;;;5084374;27;20071;-86
2023/09/05 04:37:55;;;;;;;8.63;7.72;;;13.90;99.90;;;;;;5091883;27;20118;-86
2023/09/05 04:40:21;;;;;;;8.93;8.05;;;13.90;99.90;;;;;;5082520;27;20049;-85
2023/09/05 04:42:47;;;;;;;8.85;7.95;;;14.00;99.90;;;;;;5092035;27;20478;-84
2023/09/05 04:45:14;;;;;;;10.75;7.43;;;13.60;99.90;;;;;;5080590;27;20043;-83
2023/09/05 04:47:39;;;;;;;12.23;9.30;;;13.90;99.90;;;;;;5107470;27;20042;-84
2023/09/05 04:50:08;;;;;;;10.65;8.15;;;13.90;99.90;;;;;;5074251;27;20032;-83
2023/09/05 04:52:35;;;;;;;9.13;8.32;;;14.00;99.90;;;;;;5089424;27;20035;-84
2023/09/05 04:55:01;;;;;;;9.20;8.30;;;13.90;99.90;;;;;;5111877;27;20054;-84
2023/09/05 04:57:28;;;;;;;9.43;8.43;;;14.10;99.90;;;;;;5114778;27;20452;-84
2023/09/05 04:59:59;;;;;;;9.52;8.52;;;14.00;99.90;;;;;;5113995;27;20074;-84
2023/09/05 05:02:26;;;;;;;8.77;7.95;;;13.70;99.90;;;;;;5106455;27;20490;-85
2023/09/05 05:04:51;;;;;;;10.80;8.57;;;13.80;99.90;;;;;;5099428;27;20061;-83
2023/09/05 05:07:17;;;;;;;10.10;9.02;;;13.80;99.90;;;;;;5097576;27;20043;-84
2023/09/05 05:09:45;;;;;;;9.27;8.25;;;14.00;99.90;;;;;;5080117;27;20043;-85
2023/09/05 05:12:11;;;;;;;9.30;8.30;;;14.00;99.90;;;;;;5106283;27;20876;-87
2023/09/05 05:14:36;;;;;;;9.18;7.97;;;14.80;99.90;;;;;;5077138;27;20035;-87
2023/09/05 05:17:03;;;;;;;8.82;7.85;;;13.80;99.90;;;;;;5065510;27;20051;-88
2023/09/05 05:19:29;;;;;;;8.98;7.82;;;13.90;99.90;;;;;;5103596;27;20121;-84
2023/09/05 05:21:55;;;;;;;8.35;7.55;;;13.80;99.90;;;;;;5074453;28;20172;-90
2023/09/05 05:24:21;;;;;;;9.73;8.10;;;13.90;99.90;;;;;;5093134;27;20425;-88
2023/09/05 05:26:47;;;;;;;8.85;7.95;;;14.00;99.90;;;;;;5070505;28;20036;-87
2023/09/05 05:29:12;;;;;;;9.43;8.45;;;14.10;99.90;;;;;;5092961;27;20664;-85
2023/09/05 05:31:41;;;;;;;9.07;8.07;;;14.10;99.90;;;;;;5069318;28;20032;-91
2023/09/05 05:34:07;;;;;;;11.02;8.57;;;14.10;99.90;;;;;;5089211;27;20031;-90
2023/09/05 05:36:33;;;;;;;9.45;8.55;;;14.30;99.90;;;;;;5081149;27;20573;-88
2023/09/05 05:38:59;;;;;;;9.60;8.25;;;14.60;99.90;;;;;;5095933;27;20044;-89
2023/09/05 05:41:26;;;;;;;10.67;8.23;;;14.30;99.90;;;;;;5092287;27;20031;-87
2023/09/05 05:43:52;;;;;;;8.30;7.50;;;14.40;99.90;;;;;;5113836;27;20043;-87
2023/09/05 05:46:18;;;;;;;8.98;7.65;;;14.40;99.90;;;;;;5114062;27;20091;-86
2023/09/05 05:48:47;;;;;;;8.50;7.60;;;14.50;99.90;;;;;;5104276;27;20049;-90
2023/09/05 05:51:16;;;;;;;8.07;7.28;;;14.60;99.90;;;;;;5119818;27;20112;-86
2023/09/05 05:53:42;;;;;;;8.82;7.93;;;14.70;99.90;;;;;;5054723;27;20039;-86
2023/09/05 05:56:10;;;;;;;8.80;7.77;;;14.70;99.90;;;;;;5089834;28;20067;-85
2023/09/05 05:58:36;;;;;;;8.23;7.43;;;14.70;99.90;;;;;;5111303;27;20034;-88
2023/09/05 06:01:03;;;;;;;8.43;7.35;;;14.80;99.90;;;;;;5087669;28;20039;-85
2023/09/05 06:03:29;;;;;;;8.57;7.77;;;14.90;99.90;;;;;;5100535;28;20067;-87
2023/09/05 06:05:54;;;;;;;9.95;7.60;;;14.90;99.90;;;;;;5075750;28;20047;-87
2023/09/05 06:08:21;;;;;;;9.00;7.45;;;;;;;;;;5094568;27;20054;-86
2023/09/05 06:10:47;;;;;;;11.85;7.95;;;15.00;99.90;;;;;;5106617;27;20035;-88
2023/09/05 06:13:13;;;;;;;8.85;7.13;;;15.20;99.90;;;;;;5106581;27;20135;-87
2023/09/05 06:15:40;;;;;;;8.07;6.72;;;15.30;99.90;;;;;;5090039;27;20540;-87
2023/09/05 06:18:07;;;;;;;7.18;6.47;;;15.50;99.90;;;;;;5069065;28;20634;-87
2023/09/05 06:20:34;;;;;;;8.40;7.15;;;15.60;99.90;;;;;;5091621;28;20039;-86
2023/09/05 06:23:00;;;;;;;7.63;6.93;;;15.70;99.90;;;;;;5074691;28;20508;-87
2023/09/05 06:25:29;;;;;;;8.03;6.50;;;;;;;;;;5091941;28;20055;-88
2023/09/05 06:27:55;;;;;;;7.80;6.50;;;16.00;99.90;;;;;;5093693;28;20496;-86
2023/09/05 06:30:22;;;;;;;8.88;6.55;;;16.20;99.90;;;;;;5057951;28;20039;-86
2023/09/05 06:32:48;;;;;;;7.18;6.40;;;16.50;99.90;;;;;;5057086;28;20425;-87
2023/09/05 06:35:14;;;;;;;7.47;6.55;;;16.90;99.90;;;;;;5081024;28;20040;-87
2023/09/05 06:37:40;;;;;;;6.97;6.35;;;;;;;;;;5070291;28;20047;-88
2023/09/05 06:40:09;;;;;;;6.68;5.97;;;;;;;;;;5091095;28;20113;-87
2023/09/05 06:42:39;;;;;;;7.75;6.78;;;16.90;99.90;;;;;;5104673;28;20044;-86
2023/09/05 06:45:05;;;;;;;8.05;6.70;;;16.90;99.90;;;;;;5091700;28;20043;-86
2023/09/05 06:47:31;;;;;;;7.97;6.40;;;16.90;99.90;;;;;;5093346;28;20135;-88
2023/09/05 06:49:57;;;;;;;7.28;5.70;;;;;;;;;;5102849;28;20535;-88
2023/09/05 06:52:23;;;;;;;6.67;6.03;;;17.30;99.90;;;;;;5085508;28;20057;-88
2023/09/05 06:54:50;;;;;;;7.75;6.05;;;17.10;99.90;;;;;;5093631;28;20039;-87
2023/09/05 06:57:17;;;;;;;8.43;5.72;;;17.30;99.90;;;;;;5077563;28;20360;-90
2023/09/05 06:59:43;;;;;;;;;;;17.50;99.90;;;;;;5085743;27;20696;-88
2023/09/05 07:02:08;;;;;;;6.20;5.60;;;17.00;99.90;;;;;;5077120;28;19923;-88
2023/09/05 07:04:36;;;;;;;10.00;6.35;;;17.80;99.90;;;;;;5072186;28;20703;-86
2023/09/05 07:07:06;;;;;;;6.60;6.00;;;18.00;99.90;;;;;;5071775;28;20044;-88
2023/09/05 07:09:33;;;;;;;7.18;6.47;;;18.80;99.90;;;;;;5073799;28;20040;-89
2023/09/05 07:11:59;;;;;;;7.75;6.80;;;19.80;99.90;;;;;;5072113;28;20040;-91
2023/09/05 07:14:25;;;;;;;7.97;6.28;;;20.30;99.90;;;;;;5060496;28;20093;-90
2023/09/05 07:16:51;;;;;;;6.25;5.65;;;20.60;99.90;;;;;;5062268;28;20055;-90
2023/09/05 07:19:17;;;;;;;7.25;6.55;;;21.30;99.90;;;;;;5074296;28;20051;-92
2023/09/05 07:21:44;;;;;;;6.22;5.60;;;21.70;99.90;;;;;;5083609;28;20044;-90
2023/09/05 07:24:11;;;;;;;5.35;4.57;;;22.20;99.90;;;;;;5113148;27;20050;-90
2023/09/05 07:26:38;;;;;;;5.78;4.82;;;22.80;99.90;;;;;;5105839;27;20092;-93
2023/09/05 07:29:04;;;;;;;;;;;23.30;99.90;;;;;;5119453;27;20031;-87
2023/09/05 07:31:31;;;;;;;6.15;4.78;;;22.80;99.90;;;;;;5117631;27;20026;-89
2023/09/05 07:34:00;;;;;;;5.95;4.57;;;22.70;99.90;;;;;;5084304;27;20046;-89
2023/09/05 07:36:28;;;;;;;4.45;4.03;;;22.70;99.90;;;;;;5111099;27;20382;-90
2023/09/05 07:38:54;;;;;;;4.75;4.35;;;23.00;99.90;;;;;;5131022;27;20066;-91
2023/09/05 07:41:20;;;;;;;7.88;4.35;;;23.70;99.90;;;;;;5113312;28;20035;-90
2023/09/05 07:43:46;;;;;;;5.43;4.37;;;24.40;99.90;;;;;;5087730;28;20042;-91
2023/09/05 07:46:13;;;;;;;4.87;4.20;;;;;;;;;;5113626;28;20123;-88
2023/09/05 07:48:39;;;;;;;4.90;4.07;;;25.60;99.90;;;;;;5102086;27;20034;-88
2023/09/05 07:51:07;;;;;;;5.57;4.70;;;25.80;99.90;;;;;;5097116;28;20060;-90
2023/09/05 07:53:35;;;;;;;5.70;4.13;;;26.20;99.90;;;;;;5114622;27;20034;-88
2023/09/05 07:56:02;;;;;;;6.07;4.43;;;26.40;99.90;;;;;;5121163;27;20035;-86
2023/09/05 07:58:27;;;;;;;;;;;26.40;99.90;;;;;;5137684;27;20043;-88
2023/09/05 08:00:54;;;;;;;7.00;4.30;;;26.40;99.90;;;;;;5117432;27;20441;-87
2023/09/05 08:03:26;;;;;;;6.38;4.80;;;26.80;99.90;;;;;;5097148;27;20042;-88
2023/09/05 08:05:56;;;;;;;4.25;3.85;;;27.00;99.90;;;;;;5095439;27;20043;-85
2023/09/05 08:08:22;;;;;;;4.10;3.70;;;27.10;99.90;;;;;;5103999;27;20691;-89
2023/09/05 08:10:48;;;;;;;4.88;4.28;;;27.00;99.90;;;;;;5134141;27;20035;-87
2023/09/05 08:13:14;;;;;;;4.40;3.70;;;27.20;99.90;;;;;;5101763;27;20045;-88
2023/09/05 08:15:43;;;;;;;;;;;27.30;99.90;;;;;;5100399;27;20046;-87
2023/09/05 08:18:13;;;;;;;5.88;3.78;;;27.10;99.90;;;;;;5120433;27;20029;-88
2023/09/05 08:20:42;;;;;;;4.43;4.03;;;27.50;99.90;;;;;;5101945;27;20107;-88
2023/09/05 08:23:09;;;;;;;3.90;3.50;;;27.90;99.90;;;;;;5119051;27;20034;-88
2023/09/05 08:25:34;;;;;;;4.90;3.35;;;28.20;99.90;;;;;;5104341;27;20042;-90
2023/09/05 08:28:00;;;;;;;3.33;3.03;;;28.20;99.90;;;;;;5107459;27;20043;-86
2023/09/05 08:30:28;;;;;;;5.00;3.53;;;28.40;99.90;;;;;;5103709;27;20041;-88
2023/09/05 08:33:01;;;;;;;5.18;3.50;;;28.30;99.90;;;;;;5096945;27;20145;-86
2023/09/05 08:35:28;;;;;;;5.32;3.30;;;28.40;99.90;;;;;;5123690;27;20091;-87
2023/09/05 08:37:53;;;;;;;5.38;3.50;;;28.50;99.90;;;;;;5103146;27;20122;-90
2023/09/05 08:40:20;;;;;;;5.53;3.37;;;28.40;99.90;;;;;;5099907;27;20529;-90
2023/09/05 08:42:51;;;;;;;3.80;3.38;;;;;;;;;;5124038;27;20818;-90
2023/09/05 08:45:22;;;;;;;3.40;3.10;;;27.80;99.90;;;;;;5122133;27;20039;-89
2023/09/05 08:47:52;;;;;;;4.22;3.17;;;27.20;99.90;;;;;;5120861;27;20076;-89
2023/09/05 08:50:17;;;;;;;4.82;3.22;;;27.00;99.90;;;;;;5119498;27;20061;-90
2023/09/05 08:52:43;;;;;;;3.97;3.37;;;26.40;99.90;;;;;;5118572;27;20026;-90
2023/09/05 08:55:11;;;;;;;4.10;3.53;;;26.10;99.90;;;;;;5119383;27;20046;-88
2023/09/05 08:57:45;;;;;;;5.65;3.63;;;25.50;99.90;;;;;;5137455;27;20099;-88
2023/09/05 09:00:13;;;;;;;3.80;3.05;;;25.30;99.90;;;;;;5136269;27;20038;-93
2023/09/05 09:02:39;;;;;;;3.60;2.92;;;25.20;99.90;;;;;;5107003;27;20039;-88
2023/09/05 09:05:05;;;;;;;4.20;3.07;;;24.90;99.90;;;;;;5081936;27;20038;-88
2023/09/05 09:07:31;;;;;;;3.97;3.30;;;24.70;99.90;;;;;;5118393;27;20080;-87
2023/09/05 09:09:57;;;;;;;4.17;2.80;;;24.70;99.90;;;;;;5102867;27;20551;-89
2023/09/05 09:12:30;;;;;;;4.65;2.97;;;24.70;99.90;;;;;;5082272;27;20035;-88
2023/09/05 09:15:09;;;;;;;4.70;2.95;;;24.60;99.90;;;;;;5086114;27;20034;-88
2023/09/05 09:17:49;;;;;;;3.70;3.08;;;24.60;99.90;;;;;;5090142;27;20047;-87
2023/09/05 09:20:16;;;;;;;4.78;3.35;;;24.70;99.90;;;;;;5134108;27;20125;-88
2023/09/05 09:22:42;;;;;;;4.18;3.10;;;24.70;99.90;;;;;;5103705;27;20043;-85
2023/09/05 09:25:20;;;;;;;2.80;2.53;;;24.70;99.90;;;;;;5134372;27;20427;-87
2023/09/05 09:31:59;;;;;;;4.47;2.50;;;24.90;99.90;;;;;;5145140;27;20030;-89
2023/09/05 09:34:24;;;;;;;5.35;2.40;;;25.10;99.90;;;;;;5117362;27;20366;-89
2023/09/05 09:36:52;;;;;;;4.33;2.60;;;25.10;99.90;;;;;;5101425;27;20076;-87
2023/09/05 09:39:18;;;;;;;4.53;2.50;;;25.10;99.90;;;;;;5099266;27;20046;-90
2023/09/05 09:41:46;;;;;;;3.10;2.20;;;25.20;99.90;;;;;;5084839;27;20107;-87
2023/09/05 09:44:24;;;;;;;3.92;2.88;;;25.20;99.90;;;;;;5093021;27;20072;-86
2023/09/05 09:46:50;;;;;;;3.30;2.95;;;25.40;99.90;;;;;;5116117;27;20046;-89
2023/09/05 09:49:19;;;;;;;2.80;2.45;;;25.40;99.90;;;;;;5085002;27;20038;-88
2023/09/05 09:51:48;;;;;;;3.28;2.60;;;25.60;99.90;;;;;;5115425;27;20038;-88
2023/09/05 09:54:20;;;;;;;2.65;2.10;;;25.70;99.90;;;;;;5099184;27;20118;-88
2023/09/05 09:56:47;;;;;;;3.03;2.05;;;25.80;99.90;;;;;;5101621;27;20043;-87
2023/09/05 09:59:19;;;;;;;3.20;2.28;;;25.90;99.90;;;;;;5093655;27;20078;-86
2023/09/05 10:01:45;;;;;;;5.30;1.85;;;25.90;99.90;;;;;;5110357;27;20122;-86
2023/09/05 10:04:12;;;;;;;3.00;1.98;;;26.00;99.90;;;;;;5073722;27;20043;-88
2023/09/05 10:06:38;;;;;;;2.70;1.90;;;26.10;99.90;;;;;;5088599;27;20077;-88
2023/09/05 10:09:05;;;;;;;2.27;1.50;;;26.10;99.90;;;;;;5097872;27;20031;-88
2023/09/05 10:11:32;;;;;;;3.05;1.42;;;26.20;99.90;;;;;;5082908;27;20066;-90
2023/09/05 10:13:58;;;;;;;3.20;1.67;;;26.40;99.90;;;;;;5108413;27;20470;-88
2023/09/05 10:16:25;;;;;;;3.22;1.70;;;26.40;99.90;;;;;;5115444;27;20194;-89
2023/09/05 10:18:54;;;;;;;2.30;1.40;;;26.50;99.90;;;;;;5124900;27;20031;-88
2023/09/05 10:21:23;;;;;;;2.50;1.77;;;26.50;99.90;;;;;;5114019;27;20051;-89
2023/09/05 10:23:50;;;;;;;1.73;1.50;;;26.60;99.90;;;;;;5114816;27;20035;-86
2023/09/05 10:26:16;;;;;;;5.15;1.60;;;26.60;99.90;;;;;;5118908;27;20027;-88
2023/09/05 10:28:42;;;;;;;2.85;1.90;;;26.70;99.90;;;;;;5100719;27;20477;-87
2023/09/05 10:31:15;;;;;;;2.53;1.70;;;26.90;99.90;;;;;;5097968;27;20110;-88
2023/09/05 10:33:46;;;;;;;3.67;1.65;;;27.00;99.90;;;;;;5092856;27;20043;-88
2023/09/05 10:36:41;;;;;;;2.97;1.70;;;26.90;99.90;;;;;;5133674;27;20105;-87
2023/09/05 10:39:18;;;;;;;3.83;1.88;;;27.00;99.90;;;;;;5108714;27;20042;-90
2023/09/05 10:41:43;;;;;;;1.80;1.33;;;27.10;99.90;;;;;;5097972;27;20047;-87
2023/09/05 10:44:09;;;;;;;2.33;1.50;;;27.00;99.90;;;;;;5101486;27;20393;-90
2023/09/05 10:46:38;;;;;;;2.17;1.42;;;27.10;99.90;;;;;;5088419;27;20035;-86
2023/09/05 10:49:16;;;;;;;2.75;1.70;;;27.20;99.90;;;;;;5108126;27;20373;-88
2023/09/05 10:52:19;;;;;;;1.80;1.48;;;27.30;99.90;;;;;;5100817;27;20562;-85
2023/09/05 10:54:45;;;;;;;1.88;1.08;;;27.40;99.90;;;;;;5127767;27;20034;-86
2023/09/05 10:57:36;;;;;;;2.20;1.40;;;27.50;99.90;;;;;;5099693;27;20103;-87
2023/09/05 11:00:16;;;;;;;3.15;1.55;;;27.60;99.90;;;;;;5127680;27;20087;-87
2023/09/05 11:02:43;;;;;;;4.53;1.38;;;27.60;99.90;;;;;;5108994;27;20047;-88
2023/09/05 11:05:12;;;;;;;;;;;27.60;99.90;;;;;;5097906;27;20126;-89
2023/09/05 11:07:42;;;;;;;2.20;1.30;;;27.70;99.90;;;;;;5133869;27;19966;-89
2023/09/05 11:10:11;;;;;;;2.22;1.30;;;27.70;99.90;;;;;;5112353;27;20037;-86
2023/09/05 11:12:38;;;;;;;2.58;1.10;;;27.80;99.90;;;;;;5133747;27;20653;-85
2023/09/05 11:15:05;;;;;;;1.88;1.25;;;27.80;99.90;;;;;;5082369;27;20041;-86
2023/09/05 11:17:31;;;;;;;2.63;1.20;;;27.70;99.90;;;;;;5103085;27;20047;-90
2023/09/05 11:19:57;;;;;;;2.93;1.40;;;27.70;99.90;;;;;;5086940;27;20050;-88
2023/09/05 11:22:25;;;;;;;2.03;1.37;;;27.80;99.90;;;;;;5098082;27;20103;-90
2023/09/05 11:24:53;;;;;;;2.10;1.17;;;27.80;99.90;;;;;;5117254;27;20041;-85
2023/09/05 11:27:28;;;;;;;2.45;1.35;;;27.90;99.90;;;;;;5113890;27;20081;-86
2023/09/05 11:29:58;;;;;;;1.13;0.93;;;28.00;99.90;;;;;;5095094;27;20038;-87
2023/09/05 11:32:29;;;;;;;2.22;1.20;;;28.00;99.90;;;;;;5113866;27;20141;-86
2023/09/05 11:34:55;;;;;;;2.67;1.23;;;27.90;99.90;;;;;;5100460;28;20031;-91
2023/09/05 11:37:21;;;;;;;2.30;0.93;;;27.90;99.90;;;;;;5119733;27;20038;-89
2023/09/05 11:39:49;;;;;;;1.50;0.95;;;28.00;99.90;;;;;;5095060;28;20099;-88
2023/09/05 11:42:18;;;;;;;2.53;1.52;;;28.10;99.90;;;;;;5085989;28;20438;-85
2023/09/05 11:44:44;;;;;;;4.70;1.98;;;28.10;99.90;;;;;;5109167;28;20066;-85
2023/09/05 11:47:11;;;;;;;3.10;1.30;;;28.10;99.90;;;;;;5111125;27;20456;-85
2023/09/05 11:49:37;;;;;;;3.22;1.25;;;28.10;99.90;;;;;;5097038;27;20034;-86
2023/09/05 11:52:03;;;;;;;2.25;1.13;;;28.10;99.90;;;;;;5098213;27;20070;-87
2023/09/05 11:54:31;;;;;;;1.50;0.90;;;28.10;99.70;;;;;;5101897;27;20117;-87
2023/09/05 11:56:58;;;;;;;1.90;1.10;;;28.10;98.90;;;;;;5136772;27;20079;-83
2023/09/05 11:59:25;;;;;;;2.17;0.70;;;28.10;99.10;;;;;;5098663;27;20099;-89
2023/09/05 12:01:52;;;;;;;3.53;1.00;;;28.10;99.00;;;;;;5108459;27;20047;-90
2023/09/05 12:04:18;;;;;;;;;;;28.10;98.80;;;;;;5104059;27;20369;-88
2023/09/05 12:06:48;;;;;;;2.00;0.88;;;28.20;96.80;;;;;;5136203;27;19915;-85
2023/09/05 12:09:14;;;;;;;1.92;0.95;;;28.10;96.90;;;;;;5109896;27;20477;-88
2023/09/05 12:11:40;;;;;;;1.70;0.90;;;28.10;97.70;;;;;;5099586;27;20035;-86
2023/09/05 12:14:06;;;;;;;2.40;0.73;;;28.20;97.80;;;;;;5101898;27;20084;-86
2023/09/05 12:16:32;;;;;;;4.55;0.85;;;28.20;96.50;;;;;;5102765;27;20484;-89
2023/09/05 12:19:00;;;;;;;2.08;1.00;;;28.10;96.40;;;;;;5118480;27;20070;-86
2023/09/05 12:21:39;;;;;;;1.75;0.90;;;28.10;96.80;;;;;;5119060;27;20493;-90
2023/09/05 12:24:22;;;;;;;2.15;0.93;;;28.20;96.50;;;;;;5111143;27;20035;-84
2023/09/05 12:26:53;;;;;;;2.47;1.10;;;28.10;95.70;;;;;;5118911;27;20049;-87
2023/09/05 12:29:36;;;;;;;3.33;1.17;;;28.00;96.20;;;;;;5119389;27;20039;-87
2023/09/05 12:32:02;;;;;;;1.25;0.90;;;28.00;96.70;;;;;;5136401;27;20435;-88
2023/09/05 12:34:28;;;;;;;2.85;0.88;;;28.10;97.20;;;;;;5106409;27;20034;-85
2023/09/05 12:36:53;;;;;;;1.67;0.98;;;28.00;96.40;;;;;;5105674;27;20035;-88
2023/09/05 12:39:19;;;;;;;3.03;0.80;;;28.00;96.40;;;;;;5098965;27;20116;-84
2023/09/05 12:41:46;;;;;;;1.00;0.80;;;28.00;96.30;;;;;;5104025;27;20092;-84
2023/09/05 12:44:12;;;;;;;1.30;0.90;;;27.90;95.80;;;;;;5086776;27;20049;-87
2023/09/05 12:46:38;;;;;;;1.67;0.93;;;27.90;96.00;;;;;;5101749;27;20046;-87
2023/09/05 12:49:04;;;;;;;2.03;1.20;;;27.90;96.00;;;;;;5088965;27;20165;-86
2023/09/05 12:51:30;;;;;;;1.77;1.05;;;27.90;95.90;;;;;;5118765;27;20034;-87
2023/09/05 12:54:00;;;;;;;2.05;1.15;;;28.00;96.20;;;;;;5100459;27;20078;-87
2023/09/05 12:56:26;;;;;;;1.35;0.82;;;27.90;96.60;;;;;;5119953;27;20042;-85
2023/09/05 12:58:52;;;;;;;1.67;0.88;;;28.00;96.70;;;;;;5102291;27;20055;-89